Time;durP1;ratioP1;P1;durP2;ratioP2;P2;SDS_P1;SDS_P2;PMS_P1;PMS_P2;Temp;Humidity;BMP_temperature;BMP_pressure;BME280_temperature;BME280_humidity;BME280_pressure;Samples;Min_cycle;Max_cycle;Signal;HPM_P1;HPM_P2
2023/05/21 00:00:39;;;;;;;11.05;6.55;;;;;;;20.96;60.33;99804.78;4287929;33;20110;-89
2023/05/21 00:03:04;;;;;;;13.27;6.97;;;;;;;20.81;60.33;99811.22;4276107;33;20112;-89
2023/05/21 00:05:31;;;;;;;8.52;5.87;;;;;;;20.74;60.32;99804.69;4276214;33;20366;-88
2023/05/21 00:07:56;;;;;;;8.27;6.18;;;;;;;20.84;60.32;99805.72;4289091;33;20115;-87
2023/05/21 00:10:22;;;;;;;8.40;6.07;;;;;;;20.84;60.33;99803.91;4287504;33;22492;-88
2023/05/21 00:13:07;;;;;;;7.97;5.87;;;;;;;20.91;60.33;99809.59;4288042;33;20169;-86
2023/05/21 00:15:33;;;;;;;9.25;6.15;;;;;;;20.86;60.34;99800.31;4287603;33;20140;-89
2023/05/21 00:17:58;;;;;;;12.18;6.43;;;;;;;20.71;60.32;99804.91;4276005;33;20152;-89
2023/05/21 00:20:24;;;;;;;10.02;6.10;;;;;;;20.75;60.32;99811.66;4289189;33;20678;-87
2023/05/21 00:22:49;;;;;;;11.50;6.85;;;;;;;20.68;60.32;99805.13;4287887;33;20161;-88
2023/05/21 00:25:15;;;;;;;11.35;6.30;;;;;;;20.69;60.32;99805.03;4275381;33;20124;-87
2023/05/21 00:27:40;;;;;;;13.40;6.05;;;;;;;20.65;60.32;99815.94;4287476;33;20148;-86
2023/05/21 00:30:06;;;;;;;11.23;5.47;;;;;;;20.60;60.31;99820.72;4287661;33;20111;-87
2023/05/21 00:32:31;;;;;;;9.20;6.55;;;;;;;20.75;60.32;99817.78;4288081;33;20096;-88
2023/05/21 00:34:57;;;;;;;7.62;5.68;;;;;;;20.66;60.32;99821.13;4280111;33;20117;-89
2023/05/21 00:37:23;;;;;;;9.77;6.90;;;;;;;20.52;60.31;99816.81;4288223;33;20125;-87
2023/05/21 00:39:49;;;;;;;8.73;6.00;;;;;;;20.49;60.31;99824.97;4288563;33;20126;-86
2023/05/21 00:42:16;;;;;;;8.07;6.40;;;;;;;20.42;60.31;99814.97;4289766;33;20452;-88
2023/05/21 00:44:44;;;;;;;8.98;6.22;;;;;;;20.53;60.31;99820.31;4289096;33;20462;-87
2023/05/21 00:47:09;;;;;;;11.90;6.47;;;;;;;20.34;60.30;99826.03;4289378;33;20150;-88
2023/05/21 00:49:35;;;;;;;10.70;6.30;;;;;;;20.26;60.30;99819.59;4289223;33;20138;-87
2023/05/21 00:52:01;;;;;;;10.95;6.53;;;;;;;20.28;60.29;99813.25;4290656;33;20105;-87
2023/05/21 00:54:26;;;;;;;12.48;6.85;;;;;;;20.15;60.30;99813.28;4290520;33;20153;-88
2023/05/21 00:56:51;;;;;;;13.25;7.55;;;;;;;20.10;60.29;99810.09;4277091;33;20105;-87
2023/05/21 00:59:17;;;;;;;9.02;6.15;;;;;;;20.08;60.29;99805.88;4288735;33;20148;-88
2023/05/21 01:01:44;;;;;;;8.05;5.87;;;;;;;20.11;60.29;99806.53;4290302;33;20097;-88
2023/05/21 01:04:09;;;;;;;8.55;5.68;;;;;;;20.05;60.29;99803.47;4290183;33;20462;-87
2023/05/21 01:06:36;;;;;;;10.20;6.25;;;;;;;19.85;60.28;99804.84;4290322;33;20115;-87
2023/05/21 01:09:03;;;;;;;11.32;6.28;;;;;;;19.97;60.28;99803.16;4287365;33;20108;-87
2023/05/21 01:11:37;;;;;;;11.00;7.07;;;;;;;19.89;60.28;99807.19;4288655;33;20143;-88
2023/05/21 01:14:03;;;;;;;14.15;5.78;;;;;;;20.02;60.28;99803.69;4277076;33;20441;-87
2023/05/21 01:16:31;;;;;;;13.85;6.62;;;;;;;19.93;60.28;99802.53;4277205;33;20097;-87
2023/05/21 01:18:56;;;;;;;9.55;6.45;;;;;;;19.70;60.27;99801.47;4277650;33;20111;-88
2023/05/21 01:21:22;;;;;;;12.93;5.75;;;;;;;19.86;60.28;99799.44;4269827;33;20113;-87
2023/05/21 01:23:47;;;;;;;9.73;6.43;;;;;;;19.75;60.27;99798.53;4289091;33;20117;-87
2023/05/21 01:26:13;;;;;;;10.57;6.28;;;;;;;19.64;60.26;99794.00;4288935;33;20118;-88
2023/05/21 01:28:38;;;;;;;12.98;6.43;;;;;;;19.69;60.26;99791.88;4289184;33;20464;-88
2023/05/21 01:31:10;;;;;;;11.48;6.90;;;;;;;19.61;60.25;99792.38;4289277;33;20144;-88
2023/05/21 01:33:39;;;;;;;8.82;5.80;;;;;;;19.58;60.26;99787.31;4288857;33;20163;-87
2023/05/21 01:36:08;;;;;;;14.80;6.90;;;;;;;19.58;60.26;99787.31;4277060;33;20097;-87
2023/05/21 01:38:47;;;;;;;8.85;6.12;;;;;;;19.60;60.26;99788.03;4277240;33;20119;-88
2023/05/21 01:41:13;;;;;;;10.23;5.87;;;;;;;19.61;60.25;99783.62;4289342;33;20509;-88
2023/05/21 01:43:40;;;;;;;9.18;6.30;;;;;;;19.53;60.25;99791.19;4289278;33;20151;-87
2023/05/21 01:46:08;;;;;;;9.73;6.30;;;;;;;19.42;60.25;99791.94;4276833;33;20111;-89
2023/05/21 01:48:33;;;;;;;11.50;6.50;;;;;;;19.55;60.26;99795.44;4288767;33;20116;-88
2023/05/21 01:51:01;;;;;;;11.20;5.62;;;;;;;19.69;60.26;99794.50;4288942;33;20104;-88
2023/05/21 01:53:26;;;;;;;11.12;5.93;;;;;;;19.57;60.26;99795.34;4276979;33;20132;-88
2023/05/21 01:55:53;;;;;;;13.32;6.65;;;;;;;19.52;60.26;99795.63;4289038;33;20085;-88
2023/05/21 01:58:20;;;;;;;9.48;6.12;;;;;;;19.37;60.24;99798.44;4288931;33;20172;-88
2023/05/21 02:00:45;;;;;;;9.23;6.20;;;;;;;19.41;60.25;99800.81;4288711;33;20139;-87
2023/05/21 02:03:11;;;;;;;8.98;5.93;;;;;;;19.44;60.25;99797.09;4290113;33;20439;-87
2023/05/21 02:05:37;;;;;;;9.02;5.82;;;;;;;19.46;60.26;99796.06;4276937;33;20093;-87
2023/05/21 02:08:02;;;;;;;8.07;5.90;;;;;;;19.45;60.25;99785.59;4288623;33;20097;-88
2023/05/21 02:10:27;;;;;;;9.63;5.45;;;;;;;19.40;60.25;99793.84;4276936;33;20097;-87
2023/05/21 02:12:53;;;;;;;10.15;6.00;;;;;;;19.39;60.26;99804.47;4288784;33;20130;-87
2023/05/21 02:15:18;;;;;;;9.93;5.62;;;;;;;19.21;60.24;99799.50;4289931;33;20136;-86
2023/05/21 02:17:45;;;;;;;9.77;6.15;;;;;;;19.21;60.24;99794.22;4290081;33;20089;-87
2023/05/21 02:20:11;;;;;;;9.57;6.18;;;;;;;19.37;60.24;99793.16;4289858;33;20122;-86
2023/05/21 02:22:40;;;;;;;9.85;6.32;;;;;;;19.21;60.24;99791.59;4288566;33;20148;-87
2023/05/21 02:25:07;;;;;;;8.07;5.27;;;;;;;19.28;60.24;99795.50;4288333;33;20089;-88
2023/05/21 02:27:35;;;;;;;10.27;6.22;;;;;;;19.16;60.24;99791.03;4288699;33;20213;-88
2023/05/21 02:30:01;;;;;;;8.98;5.70;;;;;;;19.36;60.24;99791.47;4276677;33;20129;-88
2023/05/21 02:32:27;;;;;;;10.05;5.65;;;;;;;19.18;60.24;99791.78;4276815;33;20148;-88
2023/05/21 02:34:52;;;;;;;10.05;6.07;;;;;;;19.04;60.23;99789.22;4289769;33;20156;-89
2023/05/21 02:37:21;;;;;;;11.48;6.12;;;;;;;18.98;60.23;99798.38;4288536;33;20121;-88
2023/05/21 02:39:46;;;;;;;8.48;5.60;;;;;;;18.83;60.22;99793.25;4276759;33;20101;-89
2023/05/21 02:42:11;;;;;;;8.80;5.80;;;;;;;18.80;60.22;99798.72;4288370;33;20124;-88
2023/05/21 02:44:37;;;;;;;10.02;6.22;;;;;;;18.92;60.22;99800.56;4288638;33;20384;-88
2023/05/21 02:47:02;;;;;;;10.52;6.53;;;;;;;18.79;60.22;99802.31;4288257;33;20115;-88
2023/05/21 02:49:28;;;;;;;11.48;6.18;;;;;;;18.64;60.21;99802.34;4288186;33;20112;-88
2023/05/21 02:51:53;;;;;;;7.37;5.72;;;;;;;18.58;60.21;99805.34;4289696;33;20473;-88
2023/05/21 02:54:19;;;;;;;9.05;6.55;;;;;;;18.58;60.20;99794.81;4289522;33;20874;-88
2023/05/21 02:56:45;;;;;;;10.50;6.12;;;;;;;18.58;60.21;99793.97;4276650;33;20181;-88
2023/05/21 02:59:10;;;;;;;11.60;6.03;;;;;;;18.59;60.20;99799.12;4288300;33;20157;-88
2023/05/21 03:01:36;;;;;;;8.18;6.10;;;;;;;18.55;60.21;99799.44;4288154;33;20109;-88
2023/05/21 03:04:01;;;;;;;12.23;6.40;;;;;;;18.30;60.20;99806.28;4275841;33;20185;-88
2023/05/21 03:06:27;;;;;;;8.75;5.90;;;;;;;18.32;60.20;99800.91;4289330;33;20466;-88
2023/05/21 03:08:52;;;;;;;9.70;6.82;;;;;;;18.25;60.19;99802.25;4288137;33;20134;-88
2023/05/21 03:11:18;;;;;;;9.05;6.68;;;;;;;18.29;60.18;99795.81;4287908;33;20445;-87
2023/05/21 03:13:44;;;;;;;10.68;6.75;;;;;;;18.19;60.19;99795.53;4288088;33;20119;-87
2023/05/21 03:16:10;;;;;;;10.30;5.57;;;;;;;18.40;60.19;99806.53;4288091;33;20443;-87
2023/05/21 03:18:35;;;;;;;9.52;6.30;;;;;;;18.39;60.20;99799.56;4289216;33;20471;-88
2023/05/21 03:21:01;;;;;;;11.82;6.78;;;;;;;18.39;60.20;99797.78;4288163;33;20112;-88
2023/05/21 03:23:26;;;;;;;10.65;6.28;;;;;;;18.57;60.20;99798.41;4287933;33;20104;-88
2023/05/21 03:25:52;;;;;;;14.85;6.60;;;;;;;18.48;60.20;99801.63;4287642;33;20145;-88
2023/05/21 03:28:17;;;;;;;8.82;5.80;;;;;;;18.42;60.20;99802.00;4287696;33;20470;-88
2023/05/21 03:30:45;;;;;;;9.98;6.18;;;;;;;18.52;60.20;99800.47;4289628;33;20160;-88
2023/05/21 03:33:15;;;;;;;10.02;5.85;;;;;;;18.52;60.20;99791.72;4289864;33;20156;-88
2023/05/21 03:35:40;;;;;;;10.93;6.75;;;;;;;18.30;60.18;99789.63;4289880;33;20089;-88
2023/05/21 03:38:06;;;;;;;8.52;6.15;;;;;;;18.27;60.18;99795.94;4289688;33;20093;-88
2023/05/21 03:40:31;;;;;;;12.55;6.07;;;;;;;18.32;60.20;99795.63;4289658;33;20358;-87
2023/05/21 03:42:56;;;;;;;8.40;5.57;;;;;;;18.30;60.18;99800.16;4289786;33;20144;-88
2023/05/21 03:45:22;;;;;;;9.18;6.10;;;;;;;18.34;60.19;99791.94;4290567;33;21244;-88
2023/05/21 03:47:48;;;;;;;10.77;5.68;;;;;;;18.32;60.20;99800.91;4277635;33;20109;-88
2023/05/21 03:50:13;;;;;;;8.50;5.72;;;;;;;18.39;60.19;99792.50;4289383;33;20451;-87
2023/05/21 03:52:39;;;;;;;8.18;5.20;;;;;;;18.41;60.20;99795.87;4289616;33;20416;-88
2023/05/21 03:55:04;;;;;;;8.57;6.03;;;;;;;18.23;60.19;99799.69;4289786;33;20135;-88
2023/05/21 03:57:30;;;;;;;8.85;5.60;;;;;;;18.28;60.19;99802.03;4289584;33;20113;-88
2023/05/21 03:59:57;;;;;;;11.73;6.37;;;;;;;18.38;60.20;99796.06;4289155;33;20164;-88
2023/05/21 04:02:24;;;;;;;8.38;5.50;;;;;;;18.51;60.20;99797.94;4289265;33;20119;-88
2023/05/21 04:04:52;;;;;;;8.20;5.35;;;;;;;18.62;60.21;99798.09;4289525;33;20093;-88
2023/05/21 04:07:19;;;;;;;10.55;5.20;;;;;;;18.69;60.21;99800.28;4289588;33;20152;-88
2023/05/21 04:09:45;;;;;;;10.80;5.32;;;;;;;18.84;60.21;99794.94;4289592;33;20520;-88
2023/05/21 04:12:11;;;;;;;6.37;4.50;;;;;;;18.93;60.22;99792.56;4289213;33;20097;-88
2023/05/21 04:14:36;;;;;;;8.07;5.32;;;;;;;19.04;60.22;99802.41;4289590;33;20422;-87
2023/05/21 04:17:04;;;;;;;7.82;5.00;;;;;;;19.22;60.25;99801.19;4289566;33;20131;-86
2023/05/21 04:19:29;;;;;;;9.95;5.80;;;;;;;19.30;60.23;99800.66;4289508;33;20132;-87
2023/05/21 04:21:56;;;;;;;6.80;4.50;;;;;;;19.43;60.25;99803.34;4290938;33;20132;-87
2023/05/21 04:24:22;;;;;;;10.48;4.93;;;;;;;19.59;60.25;99799.56;4289610;33;20567;-85
2023/05/21 04:26:48;;;;;;;9.43;4.82;;;;;;;19.57;60.25;99800.63;4289850;33;20129;-86
2023/05/21 04:29:16;;;;;;;9.80;4.95;;;;;;;19.64;60.26;99801.91;4291077;33;20116;-86
2023/05/21 04:31:42;;;;;;;9.20;5.30;;;;;;;19.81;60.27;99801.56;4289871;33;20155;-84
2023/05/21 04:34:08;;;;;;;6.90;4.00;;;;;;;20.11;60.28;99800.38;4290883;33;20448;-87
2023/05/21 04:36:34;;;;;;;7.47;4.72;;;;;;;20.14;60.28;99800.19;4290924;33;20108;-84
2023/05/21 04:39:00;;;;;;;7.12;4.47;;;;;;;20.41;60.30;99798.25;4277303;33;20461;-86
2023/05/21 04:41:25;;;;;;;7.68;5.07;;;;;;;20.65;60.31;99797.44;4290699;33;20097;-84
2023/05/21 04:43:53;;;;;;;7.07;4.50;;;;;;;20.64;60.31;99793.94;4289068;33;20157;-85
2023/05/21 04:46:23;;;;;;;6.90;4.37;;;;;;;20.94;60.33;99796.13;4288932;33;20104;-85
2023/05/21 04:48:51;;;;;;;;;;;;;;;20.93;60.32;99789.16;4290383;33;20465;-85
2023/05/21 04:51:16;;;;;;;8.95;4.95;;;;;;;20.95;60.33;99794.31;4289546;33;20344;-85
2023/05/21 04:53:42;;;;;;;8.40;4.15;;;;;;;21.09;60.34;99787.06;4289284;33;20129;-85
2023/05/21 04:56:08;;;;;;;6.20;4.35;;;;;;;21.08;60.33;99792.47;4289602;33;20184;-85
2023/05/21 04:58:34;;;;;;;7.35;4.80;;;;;;;21.23;60.34;99796.59;4289616;33;20139;-85
2023/05/21 05:01:01;;;;;;;7.07;4.55;;;;;;;21.22;60.34;99791.41;4289397;33;20112;-86
2023/05/21 05:03:27;;;;;;;7.70;4.50;;;;;;;21.33;60.35;99796.78;4290551;33;20119;-85
2023/05/21 05:05:52;;;;;;;7.53;4.43;;;;;;;21.43;60.35;99785.38;4289258;33;20120;-85
2023/05/21 05:08:18;;;;;;;7.87;4.25;;;;;;;21.42;60.35;99788.13;4290194;33;20105;-85
2023/05/21 05:10:43;;;;;;;5.82;4.03;;;;;;;21.57;60.36;99791.44;4290386;33;20097;-85
2023/05/21 05:13:09;;;;;;;9.45;4.35;;;;;;;21.64;60.37;99788.19;4290372;33;20152;-86
2023/05/21 05:15:34;;;;;;;7.30;5.03;;;;;;;21.75;60.37;99782.88;4277307;33;20120;-85
2023/05/21 05:18:00;;;;;;;7.15;4.22;;;;;;;21.70;60.38;99785.06;4290198;33;20474;-86
2023/05/21 05:20:26;;;;;;;5.93;4.45;;;;;;;21.76;60.37;99781.91;4289366;33;20144;-86
2023/05/21 05:22:51;;;;;;;7.12;4.20;;;;;;;21.98;60.38;99780.25;4290252;33;20137;-85
2023/05/21 05:25:16;;;;;;;9.48;5.22;;;;;;;21.96;60.39;99782.19;4276988;33;20487;-85
2023/05/21 05:27:42;;;;;;;8.98;4.75;;;;;;;22.14;60.40;99782.56;4290544;33;20097;-86
2023/05/21 05:30:08;;;;;;;8.90;4.68;;;;;;;22.16;60.39;99781.47;4289073;33;20108;-85
2023/05/21 05:32:33;;;;;;;9.20;5.15;;;;;;;21.97;60.39;99786.50;4289272;33;20430;-87
2023/05/21 05:34:59;;;;;;;6.70;4.80;;;;;;;22.08;60.39;99789.22;4289945;33;25604;-85
2023/05/21 05:37:24;;;;;;;10.18;5.18;;;;;;;22.08;60.39;99788.37;4288725;33;22159;-86
2023/05/21 05:39:50;;;;;;;7.37;4.50;;;;;;;22.00;60.38;99784.50;4289369;33;20344;-85
2023/05/21 05:42:15;;;;;;;7.32;4.50;;;;;;;22.15;60.39;99784.25;4288943;33;20120;-86
2023/05/21 05:44:41;;;;;;;8.13;5.28;;;;;;;22.20;60.39;99788.22;4290557;33;20474;-85
2023/05/21 05:47:09;;;;;;;6.25;4.87;;;;;;;22.17;60.39;99782.31;4290656;33;20450;-86
2023/05/21 05:49:35;;;;;;;6.85;4.55;;;;;;;22.21;60.40;99792.56;4290421;33;20588;-85
2023/05/21 05:52:00;;;;;;;7.37;4.68;;;;;;;22.37;60.40;99785.06;4289321;33;20104;-85
2023/05/21 05:54:26;;;;;;;7.47;4.22;;;;;;;22.54;60.41;99783.72;4289949;33;20478;-85
2023/05/21 05:56:51;;;;;;;7.57;4.07;;;;;;;22.64;60.42;99781.16;4288586;33;27367;-86
2023/05/21 05:59:17;;;;;;;6.22;4.05;;;;;;;22.77;60.42;99775.69;4288946;33;20152;-86
2023/05/21 06:01:42;;;;;;;7.75;4.60;;;;;;;22.80;60.44;99770.97;4290300;33;20120;-86
2023/05/21 06:04:07;;;;;;;8.07;4.05;;;;;;;22.89;60.43;99775.53;4288424;33;20149;-86
2023/05/21 06:06:33;;;;;;;5.68;4.20;;;;;;;22.73;60.43;99766.31;4288977;33;20101;-85
2023/05/21 06:08:59;;;;;;;4.90;3.58;;;;;;;22.70;60.42;99775.34;4290355;33;20101;-85
2023/05/21 06:11:25;;;;;;;5.28;3.75;;;;;;;22.73;60.43;99769.81;4288817;33;20119;-86
2023/05/21 06:13:50;;;;;;;7.18;4.20;;;;;;;22.98;60.44;99771.31;4288968;33;20112;-86
2023/05/21 06:16:16;;;;;;;8.00;4.28;;;;;;;22.99;60.43;99773.00;4288894;33;20125;-86
2023/05/21 06:18:41;;;;;;;7.35;3.92;;;;;;;23.11;60.45;99763.16;4290083;33;20093;-86
2023/05/21 06:21:07;;;;;;;5.60;4.10;;;;;;;23.16;60.44;99766.25;4276979;33;20128;-85
2023/05/21 06:23:35;;;;;;;6.40;3.72;;;;;;;23.27;60.45;99768.88;4290320;33;20175;-85
2023/05/21 06:26:00;;;;;;;6.07;4.28;;;;;;;23.41;60.45;99765.88;4289016;33;20117;-86
2023/05/21 06:28:26;;;;;;;5.68;3.92;;;;;;;23.53;60.47;99764.00;4288814;33;20132;-86
2023/05/21 06:30:51;;;;;;;8.75;4.10;;;;;;;23.67;60.47;99765.50;4290065;33;20093;-87
2023/05/21 06:33:17;;;;;;;5.90;3.97;;;;;;;23.88;60.49;99772.44;4288209;33;31016;-86
2023/05/21 06:35:42;;;;;;;7.03;3.95;;;;;;;24.03;60.48;99772.09;4289945;33;20164;-85
2023/05/21 06:38:07;;;;;;;6.60;3.78;;;;;;;24.15;60.50;99763.91;4288322;33;26446;-86
2023/05/21 06:40:33;;;;;;;7.03;4.03;;;;;;;24.37;60.51;99764.66;4287905;33;32532;-86
2023/05/21 06:42:59;;;;;;;7.03;3.47;;;;;;;24.32;60.50;99762.41;4288609;33;20116;-86
2023/05/21 06:45:24;;;;;;;9.73;4.45;;;;;;;24.44;60.52;99758.69;4289421;33;20488;-86
2023/05/21 06:47:50;;;;;;;6.65;4.22;;;;;;;24.63;60.52;99752.53;4289522;33;20105;-86
2023/05/21 06:50:15;;;;;;;5.53;3.72;;;;;;;24.93;60.54;99748.06;4288262;33;20176;-86
2023/05/21 06:52:41;;;;;;;6.03;4.53;;;;;;;25.21;60.55;99746.38;4288591;33;20212;-86
2023/05/21 06:55:06;;;;;;;6.62;4.37;;;;;;;25.26;60.55;99739.63;4287694;33;29344;-86
2023/05/21 06:57:32;;;;;;;5.47;3.72;;;;;;;25.18;60.55;99744.84;4288409;33;20412;-86
2023/05/21 06:59:57;;;;;;;6.85;4.20;;;;;;;25.29;60.55;99742.00;4288303;33;20192;-86
2023/05/21 07:02:24;;;;;;;6.90;4.03;;;;;;;25.37;60.56;99738.66;4289447;33;20136;-87
2023/05/21 07:04:50;;;;;;;7.43;3.62;;;;;;;25.57;60.57;99742.13;4288211;33;20117;-86
2023/05/21 07:07:16;;;;;;;8.18;4.05;;;;;;;25.45;60.56;99743.25;4289214;33;20085;-87
2023/05/21 07:09:41;;;;;;;7.43;4.12;;;;;;;25.38;60.56;99741.16;4289807;33;20089;-86
2023/05/21 07:12:06;;;;;;;7.72;3.92;;;;;;;25.37;60.55;99736.00;4289554;33;20319;-86
2023/05/21 07:14:32;;;;;;;6.15;3.70;;;;;;;25.38;60.55;99740.34;4289573;33;20176;-86
2023/05/21 07:16:57;;;;;;;7.22;3.85;;;;;;;25.34;60.55;99739.78;4291030;33;20439;-86
2023/05/21 07:19:23;;;;;;;5.05;3.58;;;;;;;25.46;60.57;99736.94;4289894;33;20163;-86
2023/05/21 07:21:48;;;;;;;7.65;4.00;;;;;;;25.44;60.56;99728.25;4290139;33;20149;-85
2023/05/21 07:24:13;;;;;;;6.22;3.67;;;;;;;25.48;60.57;99735.81;4289367;33;34599;-86
2023/05/21 07:26:39;;;;;;;6.82;4.10;;;;;;;25.57;60.57;99734.13;4278280;33;20144;-85
2023/05/21 07:29:04;;;;;;;5.22;3.62;;;;;;;25.42;60.56;99743.53;4291550;33;20101;-86
2023/05/21 07:31:30;;;;;;;8.68;3.97;;;;;;;25.49;60.57;99736.66;4278025;33;20101;-86
2023/05/21 07:33:55;;;;;;;8.00;4.10;;;;;;;25.44;60.56;99733.59;4290158;33;20109;-85
2023/05/21 07:36:21;;;;;;;9.52;3.80;;;;;;;25.43;60.57;99735.41;4291256;33;20092;-87
2023/05/21 07:38:46;;;;;;;7.12;4.10;;;;;;;25.58;60.57;99733.97;4291201;33;20148;-87
2023/05/21 07:41:11;;;;;;;8.27;3.83;;;;;;;25.69;60.58;99733.81;4289949;33;20109;-87
2023/05/21 07:43:37;;;;;;;5.93;3.67;;;;;;;25.69;60.58;99731.16;4289689;33;20137;-86
2023/05/21 07:46:02;;;;;;;7.60;4.00;;;;;;;25.76;60.58;99722.56;4290989;33;20138;-86
2023/05/21 07:48:28;;;;;;;6.90;3.85;;;;;;;25.89;60.58;99729.25;4289678;33;20205;-87
2023/05/21 07:50:53;;;;;;;7.70;4.20;;;;;;;26.11;60.60;99729.84;4289870;33;20123;-86
2023/05/21 07:53:19;;;;;;;5.40;3.95;;;;;;;26.07;60.60;99723.12;4290601;33;20097;-87
2023/05/21 07:55:46;;;;;;;6.12;3.60;;;;;;;26.19;60.61;99727.25;4291030;33;20202;-86
2023/05/21 07:58:16;;;;;;;6.65;4.45;;;;;;;26.19;60.61;99719.25;4289930;33;20084;-87
2023/05/21 08:00:43;;;;;;;7.47;4.12;;;;;;;26.10;60.61;99725.50;4289712;33;20108;-87
2023/05/21 08:03:10;;;;;;;6.05;3.60;;;;;;;25.83;60.59;99719.16;4289693;33;20110;-86
2023/05/21 08:05:36;;;;;;;7.32;3.70;;;;;;;25.95;60.60;99712.63;4289684;33;20136;-87
2023/05/21 08:08:01;;;;;;;6.37;3.97;;;;;;;26.05;60.60;99725.94;4290653;33;20434;-86
2023/05/21 08:10:27;;;;;;;5.65;3.47;;;;;;;26.18;60.61;99731.75;4290286;33;25253;-87
2023/05/21 08:12:52;;;;;;;7.78;4.12;;;;;;;26.24;60.60;99722.31;4277130;33;22058;-86
2023/05/21 08:15:17;;;;;;;7.37;4.47;;;;;;;26.28;60.60;99723.72;4289996;33;25664;-86
2023/05/21 08:17:43;;;;;;;7.32;4.35;;;;;;;26.20;60.61;99723.59;4290822;33;20085;-86
2023/05/21 08:20:09;;;;;;;6.60;4.00;;;;;;;26.27;60.61;99728.22;4289343;33;20152;-85
2023/05/21 08:22:34;;;;;;;7.97;3.90;;;;;;;26.49;60.62;99715.44;4289711;33;20172;-85
2023/05/21 08:25:00;;;;;;;6.62;4.07;;;;;;;26.79;60.64;99716.91;4289543;33;20135;-86
2023/05/21 08:27:25;;;;;;;6.78;3.87;;;;;;;26.89;60.64;99714.97;4289373;33;20088;-85
2023/05/21 08:29:51;;;;;;;7.25;4.00;;;;;;;26.88;60.64;99726.66;4290745;33;20127;-86
2023/05/21 08:32:16;;;;;;;7.22;4.30;;;;;;;26.85;60.64;99727.81;4290716;33;20165;-85
2023/05/21 08:34:42;;;;;;;7.05;4.20;;;;;;;27.10;60.65;99718.19;4289108;33;24450;-86
2023/05/21 08:37:07;;;;;;;6.57;4.37;;;;;;;27.26;60.67;99720.16;4289416;33;20616;-86
2023/05/21 08:39:32;;;;;;;6.28;4.12;;;;;;;27.44;60.68;99718.22;4289367;33;20150;-85
2023/05/21 08:42:03;;;;;;;5.75;4.00;;;;;;;27.52;60.68;99722.81;4289462;33;20152;-85
2023/05/21 08:44:29;;;;;;;9.93;4.60;;;;;;;27.39;60.67;99717.88;4289012;33;20454;-85
2023/05/21 08:46:54;;;;;;;8.27;3.83;;;;;;;27.50;60.67;99714.13;4289163;33;20114;-86
2023/05/21 08:49:21;;;;;;;6.57;4.62;;;;;;;27.48;60.67;99708.09;4289177;33;20385;-85
2023/05/21 08:51:47;;;;;;;5.53;4.35;;;;;;;27.72;60.68;99718.94;4289459;33;20138;-84
2023/05/21 08:54:12;;;;;;;8.40;4.25;;;;;;;27.76;60.69;99719.47;4277259;33;20143;-85
2023/05/21 08:56:39;;;;;;;7.68;4.20;;;;;;;27.91;60.70;99717.00;4289285;33;20152;-84
2023/05/21 08:59:05;;;;;;;7.95;4.30;;;;;;;27.89;60.69;99724.34;4289288;33;20458;-85
2023/05/21 09:01:32;;;;;;;8.50;4.57;;;;;;;27.77;60.69;99724.66;4290670;33;20165;-86
2023/05/21 09:03:57;;;;;;;10.55;4.03;;;;;;;27.70;60.68;99712.94;4289113;33;20476;-86
2023/05/21 09:06:24;;;;;;;6.47;4.28;;;;;;;27.63;60.68;99719.87;4289270;33;20164;-86
2023/05/21 09:08:55;;;;;;;6.75;4.82;;;;;;;27.72;60.68;99721.63;4290548;33;20097;-85
2023/05/21 09:11:21;;;;;;;7.37;5.12;;;;;;;27.87;60.69;99718.34;4290615;33;20175;-85
2023/05/21 09:13:46;;;;;;;7.18;4.00;;;;;;;27.80;60.69;99712.78;4290600;33;20108;-86
2023/05/21 09:16:12;;;;;;;5.35;4.25;;;;;;;27.87;60.69;99712.97;4289074;33;20431;-86
2023/05/21 09:18:37;;;;;;;6.45;4.32;;;;;;;28.23;60.71;99711.78;4289157;33;20140;-87
2023/05/21 09:21:22;;;;;;;6.95;4.53;;;;;;;28.12;60.71;99712.91;4289043;33;20201;-87
2023/05/21 09:23:55;;;;;;;6.90;4.22;;;;;;;28.00;60.70;99710.72;4289031;33;20120;-85
2023/05/21 09:26:22;;;;;;;5.65;4.15;;;;;;;28.02;60.70;99717.56;4288913;33;20953;-87
2023/05/21 09:28:47;;;;;;;5.80;4.00;;;;;;;28.13;60.71;99708.41;4276629;33;20180;-86
2023/05/21 09:31:13;;;;;;;7.93;4.78;;;;;;;27.94;60.69;99714.03;4288690;33;20112;-86
2023/05/21 09:33:44;;;;;;;7.18;4.25;;;;;;;28.03;60.70;99716.56;4289546;33;24050;-86
2023/05/21 09:36:10;;;;;;;7.70;3.75;;;;;;;28.01;60.70;99712.37;4288883;33;20486;-87
2023/05/21 09:38:35;;;;;;;9.57;4.22;;;;;;;28.11;60.71;99718.41;4288995;33;20109;-85
2023/05/21 09:41:04;;;;;;;11.77;4.80;;;;;;;28.30;60.72;99714.66;4288731;33;20100;-85
2023/05/21 09:43:29;;;;;;;6.12;4.40;;;;;;;28.29;60.72;99711.16;4288742;33;20089;-88
2023/05/21 09:45:55;;;;;;;6.90;4.25;;;;;;;28.58;60.73;99701.84;4288936;33;20119;-86
2023/05/21 09:48:39;;;;;;;8.23;4.37;;;;;;;28.96;60.75;99705.75;4288781;33;20158;-87
2023/05/21 09:51:14;;;;;;;8.57;3.80;;;;;;;28.95;60.75;99706.75;4290275;33;20177;-86
2023/05/21 09:53:58;;;;;;;5.53;4.22;;;;;;;28.77;60.73;99719.44;4288560;33;20097;-88
2023/05/21 09:56:28;;;;;;;7.45;5.30;;;;;;;28.82;60.74;99709.88;4288776;33;20118;-87
2023/05/21 09:59:05;;;;;;;;;;;;;;;28.97;60.75;99700.22;4290232;33;20127;-87
2023/05/21 10:01:32;;;;;;;5.87;4.05;;;;;;;29.11;60.76;99705.91;4288905;33;19996;-86
2023/05/21 10:03:59;;;;;;;4.93;3.83;;;;;;;29.36;60.77;99696.81;4288831;33;20135;-87
2023/05/21 10:06:29;;;;;;;8.05;4.32;;;;;;;29.45;60.77;99687.78;4288771;33;20093;-87
2023/05/21 10:08:56;;;;;;;5.78;3.72;;;;;;;29.59;60.78;99691.59;4288751;33;20131;-88
2023/05/21 10:11:31;;;;;;;5.40;4.00;;;;;;;29.50;60.78;99696.13;4288079;33;20109;-85
2023/05/21 10:13:59;;;;;;;4.82;3.65;;;;;;;29.49;60.78;99691.78;4287063;33;20454;-85
2023/05/21 10:16:25;;;;;;;6.03;3.53;;;;;;;29.58;60.78;99693.44;4288546;33;20116;-86
2023/05/21 10:18:52;;;;;;;6.15;3.70;;;;;;;29.70;60.78;99693.91;4276680;33;20160;-86
2023/05/21 10:21:18;;;;;;;8.70;3.65;;;;;;;29.58;60.79;99687.25;4289965;33;20096;-87
2023/05/21 10:23:44;;;;;;;7.37;3.58;;;;;;;29.45;60.78;99685.09;4288673;33;20381;-86
2023/05/21 10:26:09;;;;;;;5.22;4.05;;;;;;;29.42;60.77;99679.19;4288534;33;20431;-85
2023/05/21 10:28:35;;;;;;;4.03;3.55;;;;;;;29.39;60.77;99677.72;4288497;33;20113;-86
2023/05/21 10:31:00;;;;;;;4.12;3.40;;;;;;;29.46;60.78;99680.56;4288734;33;20447;-86
2023/05/21 10:33:25;;;;;;;4.18;3.60;;;;;;;29.39;60.77;99683.06;4287854;33;20148;-85
2023/05/21 10:35:51;;;;;;;6.75;3.45;;;;;;;29.26;60.77;99663.97;4288581;33;20379;-85
2023/05/21 10:38:17;;;;;;;6.82;3.90;;;;;;;29.04;60.75;99685.12;4288279;33;20109;-85
2023/05/21 10:40:43;;;;;;;9.38;3.97;;;;;;;29.16;60.75;99676.75;4288563;33;20458;-87
2023/05/21 10:43:48;;;;;;;8.73;3.70;;;;;;;29.49;60.78;99683.72;4288234;33;20189;-89
2023/05/21 10:46:45;;;;;;;6.78;4.05;;;;;;;29.86;60.79;99671.53;4275831;33;20410;-86
2023/05/21 10:49:29;;;;;;;6.18;4.00;;;;;;;29.98;60.80;99674.66;4288116;33;20109;-87
2023/05/21 10:52:13;;;;;;;7.57;3.72;;;;;;;30.06;60.81;99677.34;4288081;33;20136;-86
2023/05/21 10:55:00;;;;;;;6.87;4.10;;;;;;;30.02;60.81;99676.81;4288341;33;20100;-88
2023/05/21 10:58:03;;;;;;;5.07;4.28;;;;;;;30.14;60.82;99671.91;4276431;33;20165;-87
2023/05/21 11:00:30;;;;;;;7.07;4.32;;;;;;;30.28;60.82;99670.31;4289333;33;20109;-86
2023/05/21 11:02:56;;;;;;;9.40;3.85;;;;;;;30.19;60.81;99669.53;4288258;33;20140;-86
2023/05/21 11:05:54;;;;;;;4.62;3.85;;;;;;;30.15;60.81;99663.69;4288108;33;20483;-85
2023/05/21 11:08:27;;;;;;;6.12;3.80;;;;;;;29.75;60.79;99672.75;4289376;33;20414;-86
2023/05/21 11:10:53;;;;;;;7.82;3.45;;;;;;;29.77;60.79;99667.19;4276243;33;20494;-86
2023/05/21 11:13:20;;;;;;;5.50;4.10;;;;;;;29.98;60.81;99658.53;4276325;33;20112;-86
2023/05/21 11:15:58;;;;;;;7.18;3.80;;;;;;;30.11;60.80;99648.13;4289287;33;20091;-86
2023/05/21 11:18:32;;;;;;;8.38;3.72;;;;;;;30.40;60.82;99656.31;4289393;33;20109;-87
2023/05/21 11:21:16;;;;;;;4.25;3.83;;;;;;;30.36;60.82;99656.84;4288108;33;20135;-87
2023/05/21 11:23:59;;;;;;;6.25;3.75;;;;;;;30.35;60.82;99665.91;4288061;33;20519;-87
2023/05/21 11:26:26;;;;;;;5.25;4.05;;;;;;;30.50;60.82;99650.69;4287898;33;20175;-85
2023/05/21 11:29:04;;;;;;;4.93;4.00;;;;;;;30.69;60.84;99646.72;4288051;33;20463;-85
2023/05/21 11:31:36;;;;;;;5.32;3.50;;;;;;;30.82;60.84;99653.16;4287803;33;20470;-85